createdAt,value
2023-01-29T00:02:16.059Z,33.39
2023-01-29T00:04:42.796Z,33.11
2023-01-29T00:07:09.366Z,33.43
2023-01-29T00:09:36.080Z,33.28
2023-01-29T00:12:02.718Z,33.47
2023-01-29T00:14:29.482Z,33.55
2023-01-29T00:16:56.108Z,33.44
2023-01-29T00:19:23.212Z,33.74
2023-01-29T00:21:49.732Z,33.97
2023-01-29T00:24:16.689Z,33.94
2023-01-29T00:26:43.399Z,33.92
2023-01-29T00:29:10.437Z,33.65
2023-01-29T00:31:37.189Z,33.80
2023-01-29T00:34:03.896Z,33.64
2023-01-29T00:36:30.547Z,33.62
2023-01-29T00:38:59.278Z,33.58
2023-01-29T00:41:49.491Z,33.66
2023-01-29T00:44:34.737Z,33.60
2023-01-29T00:47:01.694Z,33.64
2023-01-29T00:49:30.066Z,33.47
2023-01-29T00:52:17.044Z,33.43
2023-01-29T00:54:43.669Z,33.79
2023-01-29T00:57:10.201Z,34.46
2023-01-29T00:59:37.532Z,34.98
2023-01-29T01:02:23.024Z,35.14
2023-01-29T01:04:49.913Z,35.21
2023-01-29T01:07:17.127Z,35.16
2023-01-29T01:10:02.293Z,34.90
2023-01-29T01:12:29.440Z,34.88
2023-01-29T01:14:55.951Z,34.63
2023-01-29T01:17:22.751Z,34.26
2023-01-29T01:19:49.444Z,34.18
2023-01-29T01:22:16.347Z,33.91
2023-01-29T01:24:44.132Z,34.00
2023-01-29T01:27:10.720Z,33.76
2023-01-29T01:29:37.363Z,33.67
2023-01-29T01:32:04.348Z,33.64
2023-01-29T01:34:30.929Z,33.39
2023-01-29T01:36:57.641Z,33.31
2023-01-29T01:39:25.289Z,33.34
2023-01-29T01:41:53.663Z,33.10
2023-01-29T01:44:53.677Z,33.17
2023-01-29T01:47:37.662Z,33.10
2023-01-29T01:50:14.243Z,32.99
2023-01-29T01:52:47.349Z,33.06
2023-01-29T01:55:19.052Z,32.79
2023-01-29T01:57:51.110Z,32.83
2023-01-29T02:00:19.512Z,33.00
2023-01-29T02:03:06.078Z,32.85
2023-01-29T02:05:53.280Z,32.66
2023-01-29T02:08:48.656Z,32.62
2023-01-29T02:11:15.995Z,32.63
2023-01-29T02:13:43.374Z,32.60
2023-01-29T02:16:09.953Z,32.63
2023-01-29T02:18:38.129Z,32.60
2023-01-29T02:21:29.290Z,32.39
2023-01-29T02:24:14.953Z,32.53
2023-01-29T02:27:19.569Z,32.62
2023-01-29T02:29:52.221Z,32.46
2023-01-29T02:32:54.346Z,32.29
2023-01-29T02:35:31.965Z,32.34
2023-01-29T02:38:08.025Z,32.32
2023-01-29T02:41:02.700Z,32.42
2023-01-29T02:43:55.395Z,32.18
2023-01-29T02:46:40.465Z,32.32
2023-01-29T02:49:16.516Z,32.20
2023-01-29T02:51:54.668Z,32.02
2023-01-29T02:54:46.916Z,32.20
2023-01-29T02:57:22.664Z,32.07
2023-01-29T02:59:56.036Z,32.10
2023-01-29T03:02:33.044Z,32.01
2023-01-29T03:05:03.677Z,32.02
2023-01-29T03:07:46.347Z,31.88
2023-01-29T03:10:43.813Z,31.91
2023-01-29T03:13:18.511Z,32.03
2023-01-29T03:15:54.910Z,31.92
2023-01-29T03:18:45.855Z,31.82
2023-01-29T03:21:37.273Z,32.04
2023-01-29T03:24:25.133Z,31.77
2023-01-29T03:27:11.633Z,31.90
2023-01-29T03:30:03.304Z,31.87
2023-01-29T03:32:59.204Z,31.89
2023-01-29T03:35:36.522Z,31.73
2023-01-29T03:38:07.431Z,31.73
2023-01-29T03:40:51.028Z,31.70
2023-01-29T03:43:39.005Z,31.87
2023-01-29T03:46:22.420Z,31.71
2023-01-29T03:49:14.478Z,31.75
2023-01-29T03:51:53.180Z,31.67
2023-01-29T03:55:01.213Z,31.71
2023-01-29T03:57:36.490Z,31.57
2023-01-29T04:00:21.249Z,31.72
2023-01-29T04:03:19.583Z,31.58
2023-01-29T04:06:24.344Z,31.75
2023-01-29T04:09:07.388Z,31.83
2023-01-29T04:11:42.835Z,31.94
2023-01-29T04:14:10.711Z,32.06
2023-01-29T04:16:41.921Z,32.01
2023-01-29T04:19:21.623Z,32.05
2023-01-29T04:21:53.051Z,32.06
2023-01-29T04:24:19.697Z,32.08
2023-01-29T04:27:01.304Z,31.86
2023-01-29T04:29:43.359Z,32.01
2023-01-29T04:33:03.141Z,32.10
2023-01-29T04:35:40.787Z,32.18
2023-01-29T04:38:35.297Z,32.27
2023-01-29T04:41:21.810Z,32.50
2023-01-29T04:44:06.742Z,32.52
2023-01-29T04:46:49.507Z,32.46
2023-01-29T04:49:21.884Z,32.59
2023-01-29T04:52:03.756Z,32.25
2023-01-29T04:54:55.260Z,32.43
2023-01-29T04:57:35.960Z,32.10
2023-01-29T05:00:08.549Z,31.94
2023-01-29T05:02:39.266Z,32.02
2023-01-29T05:05:08.374Z,32.02
2023-01-29T05:07:38.509Z,32.01
2023-01-29T05:10:09.495Z,31.83
2023-01-29T05:12:38.059Z,31.82
2023-01-29T05:15:11.600Z,32.09
2023-01-29T05:17:38.358Z,31.99
2023-01-29T05:20:06.032Z,31.92
2023-01-29T05:22:32.936Z,31.76
2023-01-29T05:24:59.579Z,31.88
2023-01-29T05:27:53.970Z,31.79
2023-01-29T05:30:20.588Z,31.88
2023-01-29T05:32:47.117Z,31.79
2023-01-29T05:35:14.325Z,31.87
2023-01-29T05:37:40.976Z,31.76
2023-01-29T05:40:08.805Z,31.79
2023-01-29T05:42:35.516Z,31.66
2023-01-29T05:45:02.211Z,31.71
2023-01-29T05:47:28.775Z,31.69
2023-01-29T05:49:55.455Z,31.70
2023-01-29T05:52:22.022Z,31.52
2023-01-29T05:54:49.022Z,31.72
2023-01-29T05:57:15.604Z,31.62
2023-01-29T05:59:42.196Z,31.61
2023-01-29T06:02:08.748Z,31.56
2023-01-29T06:04:35.576Z,31.73
2023-01-29T06:07:03.419Z,31.65
2023-01-29T06:09:29.981Z,31.63
2023-01-29T06:11:57.316Z,31.61
2023-01-29T06:14:23.939Z,31.61
2023-01-29T06:16:50.449Z,31.70
2023-01-29T06:19:18.251Z,31.79
2023-01-29T06:21:44.753Z,31.76
2023-01-29T06:24:11.377Z,31.61
2023-01-29T06:26:37.996Z,31.80
2023-01-29T06:29:04.620Z,31.85
2023-01-29T06:31:39.844Z,31.70
2023-01-29T06:34:07.978Z,31.74
2023-01-29T06:36:34.798Z,31.81
2023-01-29T06:39:01.379Z,31.80
2023-01-29T06:41:28.613Z,31.82
2023-01-29T06:43:55.417Z,31.90
2023-01-29T06:46:21.958Z,31.80
2023-01-29T06:48:48.612Z,31.93
2023-01-29T06:51:15.137Z,31.75
2023-01-29T06:53:43.376Z,31.74
2023-01-29T06:56:11.241Z,31.73
2023-01-29T06:58:38.271Z,31.65
2023-01-29T07:01:05.163Z,31.68
2023-01-29T07:03:32.047Z,31.83
2023-01-29T07:05:58.745Z,31.70
2023-01-29T07:08:25.366Z,31.73
2023-01-29T07:10:52.001Z,32.06
2023-01-29T07:13:18.612Z,31.85
2023-01-29T07:15:45.149Z,31.54
2023-01-29T07:18:14.650Z,31.66
2023-01-29T07:20:42.522Z,31.71
2023-01-29T07:23:14.321Z,31.77
2023-01-29T07:25:41.627Z,31.70
2023-01-29T07:28:08.312Z,31.83
2023-01-29T07:30:35.735Z,32.01
2023-01-29T07:33:08.074Z,31.84
2023-01-29T07:35:42.468Z,31.78
2023-01-29T07:38:10.857Z,31.85
2023-01-29T07:40:37.804Z,31.88
2023-01-29T07:43:07.018Z,31.89
2023-01-29T07:45:36.280Z,31.86
2023-01-29T07:48:07.684Z,31.89
2023-01-29T07:50:35.368Z,32.05
2023-01-29T07:53:02.524Z,32.32
2023-01-29T07:55:29.161Z,32.21
2023-01-29T07:57:57.233Z,32.22
2023-01-29T08:00:24.451Z,32.19
2023-01-29T08:02:51.111Z,32.37
2023-01-29T08:05:17.916Z,32.35
2023-01-29T08:07:49.248Z,32.32
2023-01-29T08:10:20.797Z,32.44
2023-01-29T08:15:11.301Z,32.32
2023-01-29T08:17:52.556Z,32.58
2023-01-29T08:20:24.193Z,32.60
2023-01-29T08:22:59.151Z,32.53
2023-01-29T08:25:26.183Z,32.83
2023-01-29T08:27:53.087Z,32.81
2023-01-29T08:30:19.855Z,33.06
2023-01-29T08:32:46.450Z,33.77
2023-01-29T08:35:14.058Z,34.13
2023-01-29T08:37:40.596Z,34.21
2023-01-29T08:40:13.333Z,34.43
2023-01-29T08:42:41.373Z,34.46
2023-01-29T08:45:08.882Z,34.13
2023-01-29T08:47:35.440Z,34.51
2023-01-29T08:50:02.301Z,34.51
2023-01-29T08:52:28.952Z,34.47
2023-01-29T08:54:55.555Z,34.41
2023-01-29T08:57:22.194Z,34.31
2023-01-29T08:59:48.677Z,34.16
2023-01-29T09:02:15.309Z,34.18
2023-01-29T09:04:41.958Z,34.25
2023-01-29T09:07:08.510Z,34.13
2023-01-29T09:09:35.205Z,34.03
2023-01-29T09:12:01.862Z,34.06
2023-01-29T09:14:28.376Z,34.23
2023-01-29T09:16:55.043Z,34.22
2023-01-29T09:19:21.564Z,33.94
2023-01-29T09:21:49.512Z,34.44
2023-01-29T09:24:16.465Z,34.88
2023-01-29T09:26:43.067Z,35.23
2023-01-29T09:29:10.922Z,35.22
2023-01-29T09:31:37.798Z,35.10
2023-01-29T09:34:04.461Z,35.10
2023-01-29T09:36:31.131Z,34.91
2023-01-29T09:38:57.808Z,34.82
2023-01-29T09:41:38.588Z,34.81
2023-01-29T09:44:32.633Z,34.33
2023-01-29T09:47:04.978Z,34.31
2023-01-29T09:49:35.975Z,34.33
2023-01-29T09:52:07.269Z,34.18
2023-01-29T09:54:47.041Z,34.03
2023-01-29T09:57:22.716Z,33.98
2023-01-29T09:59:49.346Z,33.95
2023-01-29T10:02:34.489Z,33.99
2023-01-29T10:05:34.534Z,33.84
2023-01-29T10:08:38.976Z,33.62
2023-01-29T10:11:26.432Z,33.50
2023-01-29T10:14:02.564Z,29.56
2023-01-29T10:16:59.369Z,29.39
2023-01-29T10:20:01.198Z,31.85
2023-01-29T10:22:33.556Z,32.96
2023-01-29T10:25:09.929Z,33.66
2023-01-29T10:27:40.387Z,34.09
2023-01-29T10:30:20.407Z,34.48
2023-01-29T10:32:49.293Z,34.66
2023-01-29T10:35:31.647Z,34.76
2023-01-29T10:38:02.207Z,34.99
2023-01-29T10:40:38.169Z,34.99
2023-01-29T10:43:13.068Z,34.99
2023-01-29T10:46:17.881Z,35.02
2023-01-29T10:48:58.272Z,34.89
2023-01-29T10:51:40.133Z,34.65
2023-01-29T10:54:18.607Z,34.57
2023-01-29T10:57:09.781Z,34.32
2023-01-29T10:59:56.622Z,34.44
2023-01-29T11:02:23.194Z,34.59
2023-01-29T11:04:49.779Z,34.48
2023-01-29T11:07:19.534Z,34.53
2023-01-29T11:10:11.442Z,34.39
2023-01-29T11:12:39.277Z,34.32
2023-01-29T11:15:11.974Z,34.19
2023-01-29T11:17:38.784Z,34.17
2023-01-29T11:20:25.266Z,34.06
2023-01-29T11:22:58.129Z,33.87
2023-01-29T11:25:25.295Z,33.83
2023-01-29T11:27:57.022Z,34.28
2023-01-29T11:30:29.764Z,34.34
2023-01-29T11:33:05.432Z,34.41
2023-01-29T11:35:33.372Z,34.40
2023-01-29T11:38:08.770Z,34.49
2023-01-29T11:40:39.765Z,34.39
2023-01-29T11:43:30.805Z,34.16
2023-01-29T11:45:59.832Z,34.21
2023-01-29T11:48:40.820Z,34.32
2023-01-29T11:51:10.347Z,34.49
2023-01-29T11:53:44.286Z,34.43
2023-01-29T11:56:20.053Z,34.24
2023-01-29T11:58:48.465Z,34.25
2023-01-29T12:01:18.426Z,34.13
2023-01-29T12:03:52.110Z,34.07
2023-01-29T12:06:23.462Z,33.88
2023-01-29T12:08:57.290Z,34.00
2023-01-29T12:11:28.009Z,34.01
2023-01-29T12:13:57.124Z,33.91
2023-01-29T12:16:31.177Z,33.93
2023-01-29T12:19:18.587Z,33.93
2023-01-29T12:21:51.025Z,33.71
2023-01-29T12:24:23.416Z,33.90
2023-01-29T12:26:53.262Z,33.53
2023-01-29T12:30:00.815Z,33.50
2023-01-29T12:33:09.143Z,33.60
2023-01-29T12:35:43.537Z,33.69
2023-01-29T12:38:21.971Z,33.66
2023-01-29T12:40:55.287Z,33.72
2023-01-29T12:43:27.512Z,33.52
2023-01-29T12:45:55.381Z,33.56
2023-01-29T12:48:28.027Z,33.55
2023-01-29T12:50:59.377Z,33.60
2023-01-29T12:53:35.114Z,33.75
2023-01-29T12:56:18.485Z,34.02
2023-01-29T12:58:49.631Z,34.01
2023-01-29T13:01:28.972Z,33.92
2023-01-29T13:04:06.320Z,33.60
2023-01-29T13:06:42.528Z,33.38
2023-01-29T13:09:17.107Z,33.29
2023-01-29T13:11:53.330Z,33.23
2023-01-29T13:14:24.164Z,33.24
2023-01-29T13:16:55.482Z,33.16
2023-01-29T13:19:29.302Z,33.09
2023-01-29T13:22:00.316Z,33.13
2023-01-29T13:24:37.145Z,33.23
2023-01-29T13:27:03.975Z,33.35
2023-01-29T13:29:31.270Z,33.29
2023-01-29T13:32:00.892Z,33.34
2023-01-29T13:34:49.619Z,33.43
2023-01-29T13:37:19.111Z,33.58
2023-01-29T13:39:53.181Z,33.63
2023-01-29T13:42:47.381Z,33.66
2023-01-29T13:45:22.768Z,33.70
2023-01-29T13:47:51.713Z,33.88
2023-01-29T13:50:45.941Z,33.58
2023-01-29T13:53:26.409Z,33.84
2023-01-29T13:55:53.336Z,33.68
2023-01-29T13:58:31.758Z,33.75
2023-01-29T14:01:01.225Z,33.75
2023-01-29T14:03:45.122Z,33.95
2023-01-29T14:06:40.402Z,34.35
2023-01-29T14:09:38.835Z,35.08
2023-01-29T14:12:25.463Z,35.43
2023-01-29T14:14:55.481Z,35.45
2023-01-29T14:17:25.619Z,35.35
2023-01-29T14:20:03.002Z,35.29
2023-01-29T14:22:33.195Z,35.22
2023-01-29T14:25:04.689Z,35.03
2023-01-29T14:27:32.396Z,35.06
2023-01-29T14:30:02.038Z,34.94
2023-01-29T14:32:29.578Z,35.06
2023-01-29T14:35:10.557Z,34.91
2023-01-29T14:37:41.443Z,34.90
2023-01-29T14:40:30.228Z,34.83
2023-01-29T14:43:07.740Z,34.81
2023-01-29T14:45:41.748Z,34.66
2023-01-29T14:48:20.386Z,34.71
2023-01-29T14:50:52.057Z,34.73
2023-01-29T14:53:43.042Z,34.70
2023-01-29T14:56:26.380Z,34.53
2023-01-29T14:59:03.269Z,34.57
2023-01-29T15:01:37.871Z,35.08
2023-01-29T15:04:19.144Z,35.01
2023-01-29T15:06:53.004Z,35.12
2023-01-29T15:09:37.821Z,35.08
2023-01-29T15:12:21.000Z,34.76
2023-01-29T15:14:53.574Z,34.50
2023-01-29T15:17:53.011Z,34.28
2023-01-29T15:20:27.378Z,34.00
2023-01-29T15:22:54.309Z,34.05
2023-01-29T15:25:21.636Z,34.13
2023-01-29T15:27:49.408Z,33.96
2023-01-29T15:30:20.299Z,33.87
2023-01-29T15:32:48.345Z,33.96
2023-01-29T15:35:20.837Z,33.80
2023-01-29T15:37:59.916Z,33.76
2023-01-29T15:40:27.319Z,33.84
2023-01-29T15:42:53.853Z,33.83
2023-01-29T15:45:32.168Z,33.92
2023-01-29T15:48:08.286Z,33.91
2023-01-29T15:50:40.458Z,33.89
2023-01-29T15:53:13.644Z,33.95
2023-01-29T15:55:40.550Z,33.92
2023-01-29T15:58:17.455Z,33.79
2023-01-29T16:00:53.468Z,33.89
2023-01-29T16:03:23.827Z,33.77
2023-01-29T16:05:52.431Z,33.88
2023-01-29T16:10:42.154Z,33.90
2023-01-29T16:13:36.958Z,33.78
2023-01-29T16:16:05.910Z,33.77
2023-01-29T16:18:39.497Z,33.80
2023-01-29T16:21:16.361Z,33.90
2023-01-29T16:23:48.223Z,33.89
2023-01-29T16:26:25.831Z,33.92
2023-01-29T16:28:52.766Z,33.98
2023-01-29T16:31:31.199Z,33.85
2023-01-29T16:34:05.817Z,33.92
2023-01-29T16:36:32.738Z,33.99
2023-01-29T16:39:02.476Z,34.01
2023-01-29T16:41:35.958Z,34.07
2023-01-29T16:44:23.562Z,34.13
2023-01-29T16:46:53.349Z,34.18
2023-01-29T16:49:26.074Z,34.18
2023-01-29T16:51:54.266Z,34.17
2023-01-29T16:54:23.854Z,34.11
2023-01-29T16:56:53.977Z,34.35
2023-01-29T16:59:32.633Z,34.18
2023-01-29T17:02:00.005Z,34.28
2023-01-29T17:04:27.623Z,34.32
2023-01-29T17:06:57.310Z,34.48
2023-01-29T17:09:28.620Z,34.27
2023-01-29T17:11:58.452Z,34.23
2023-01-29T17:14:29.723Z,34.44
2023-01-29T17:17:05.994Z,34.39
2023-01-29T17:19:33.186Z,34.40
2023-01-29T17:21:59.988Z,34.41
2023-01-29T17:24:29.839Z,34.51
2023-01-29T17:26:57.442Z,34.50
2023-01-29T17:29:28.513Z,34.37
2023-01-29T17:31:56.069Z,34.41
2023-01-29T17:34:24.084Z,34.41
2023-01-29T17:36:50.724Z,34.52
2023-01-29T17:39:20.422Z,35.71
2023-01-29T17:41:52.512Z,36.47
2023-01-29T17:44:19.528Z,36.83
2023-01-29T17:46:47.346Z,37.00
2023-01-29T17:49:32.572Z,37.05
2023-01-29T17:51:59.808Z,37.28
2023-01-29T17:54:26.306Z,37.22
2023-01-29T17:56:54.240Z,37.20
2023-01-29T17:59:27.666Z,36.94
2023-01-29T18:01:55.356Z,36.84
2023-01-29T18:04:22.232Z,36.65
2023-01-29T18:09:23.138Z,36.34
2023-01-29T18:11:50.280Z,36.25
2023-01-29T18:14:17.688Z,36.19
2023-01-29T18:16:45.047Z,36.02
2023-01-29T18:19:27.571Z,35.92
2023-01-29T18:21:54.467Z,35.71
2023-01-29T18:24:21.173Z,35.59
2023-01-29T18:26:48.856Z,35.58
2023-01-29T18:29:15.481Z,35.53
2023-01-29T18:31:42.249Z,35.32
2023-01-29T18:34:08.841Z,35.29
2023-01-29T18:36:35.660Z,35.28
2023-01-29T18:39:02.226Z,35.14
2023-01-29T18:41:29.509Z,36.43
2023-01-29T18:43:56.089Z,37.33
2023-01-29T18:46:24.345Z,37.66
2023-01-29T18:48:51.042Z,37.82
2023-01-29T18:51:17.922Z,37.90
2023-01-29T18:53:50.169Z,38.16
2023-01-29T18:56:17.129Z,38.33
2023-01-29T18:58:52.018Z,38.27
2023-01-29T19:01:22.775Z,38.08
2023-01-29T19:03:49.387Z,37.88
2023-01-29T19:06:16.008Z,37.61
2023-01-29T19:08:43.791Z,37.50
2023-01-29T19:11:12.433Z,37.32
2023-01-29T19:13:42.822Z,37.20
2023-01-29T19:16:10.810Z,36.87
2023-01-29T19:18:37.723Z,36.71
2023-01-29T19:21:15.078Z,36.39
2023-01-29T19:23:43.039Z,36.33
2023-01-29T19:26:10.334Z,36.26
2023-01-29T19:28:37.003Z,35.96
2023-01-29T19:31:03.817Z,35.87
2023-01-29T19:33:30.512Z,35.76
2023-01-29T19:35:58.183Z,35.67
2023-01-29T19:38:25.146Z,36.17
2023-01-29T19:40:52.326Z,36.02
2023-01-29T19:43:19.297Z,35.91
2023-01-29T19:45:51.106Z,35.67
2023-01-29T19:48:22.096Z,36.01
2023-01-29T19:51:01.061Z,36.85
2023-01-29T19:53:29.211Z,37.37
2023-01-29T19:56:02.863Z,37.43
2023-01-29T19:58:30.628Z,37.34
2023-01-29T20:00:58.959Z,37.20
2023-01-29T20:03:26.646Z,36.93
2023-01-29T20:05:53.328Z,36.80
2023-01-29T20:08:20.061Z,36.55
2023-01-29T20:10:51.453Z,36.37
2023-01-29T20:13:18.351Z,36.13
2023-01-29T20:15:46.796Z,35.99
2023-01-29T20:18:14.320Z,36.01
2023-01-29T20:20:47.881Z,35.78
2023-01-29T20:23:31.846Z,35.70
2023-01-29T20:26:03.362Z,35.43
2023-01-29T20:28:30.023Z,35.51
2023-01-29T20:30:58.259Z,35.27
2023-01-29T20:33:25.550Z,35.15
2023-01-29T20:36:04.132Z,35.15
2023-01-29T20:41:19.500Z,35.10
2023-01-29T20:43:47.304Z,34.98
2023-01-29T20:46:14.359Z,34.96
2023-01-29T20:48:42.178Z,34.95
2023-01-29T20:51:13.055Z,34.97
2023-01-29T20:53:41.140Z,34.89
2023-01-29T20:56:08.264Z,34.85
2023-01-29T20:58:35.990Z,34.78
2023-01-29T21:01:11.653Z,34.64
2023-01-29T21:03:39.373Z,34.77
2023-01-29T21:06:09.712Z,34.63
2023-01-29T21:08:37.757Z,34.61
2023-01-29T21:11:08.686Z,34.66
2023-01-29T21:13:35.465Z,34.54
2023-01-29T21:16:02.403Z,34.44
2023-01-29T21:18:29.825Z,34.39
2023-01-29T21:20:56.481Z,34.42
2023-01-29T21:23:23.326Z,34.41
2023-01-29T21:25:49.933Z,34.40
2023-01-29T21:28:17.038Z,34.44
2023-01-29T21:30:46.402Z,34.33
2023-01-29T21:33:13.305Z,34.31
2023-01-29T21:35:39.949Z,34.31
2023-01-29T21:38:06.603Z,34.34
2023-01-29T21:40:33.580Z,34.21
2023-01-29T21:43:12.365Z,34.23
2023-01-29T21:45:39.829Z,34.34
2023-01-29T21:48:07.499Z,34.17
2023-01-29T21:50:35.123Z,34.35
2023-01-29T21:53:01.787Z,34.44
2023-01-29T21:55:28.757Z,34.30
2023-01-29T21:57:55.344Z,34.30
2023-01-29T22:00:22.396Z,34.32
2023-01-29T22:02:50.101Z,34.35
2023-01-29T22:05:19.692Z,33.92
2023-01-29T22:07:47.656Z,33.99
2023-01-29T22:10:15.481Z,34.05
2023-01-29T22:12:42.493Z,34.37
2023-01-29T22:15:09.756Z,34.62
2023-01-29T22:17:39.180Z,34.86
2023-01-29T22:20:07.420Z,34.70
2023-01-29T22:24:56.488Z,34.73
2023-01-29T22:27:23.296Z,34.87
2023-01-29T22:29:49.884Z,34.96
2023-01-29T22:32:16.561Z,35.08
2023-01-29T22:34:43.117Z,35.07
2023-01-29T22:37:09.767Z,35.30
2023-01-29T22:39:36.407Z,35.30
2023-01-29T22:42:03.056Z,35.34
2023-01-29T22:44:29.616Z,35.50
2023-01-29T22:46:56.313Z,35.58
2023-01-29T22:49:23.228Z,35.45
2023-01-29T22:52:10.001Z,35.61
2023-01-29T22:54:38.753Z,35.68
2023-01-29T22:57:05.697Z,35.65
2023-01-29T23:01:55.692Z,35.55
2023-01-29T23:04:22.545Z,35.57
2023-01-29T23:06:52.321Z,35.86
2023-01-29T23:09:19.226Z,35.68
2023-01-29T23:11:46.178Z,35.64
2023-01-29T23:14:12.782Z,35.71
2023-01-29T23:16:39.384Z,35.70
2023-01-29T23:19:06.009Z,35.62
2023-01-29T23:21:32.899Z,35.76
2023-01-29T23:24:00.660Z,35.57
2023-01-29T23:26:48.786Z,35.58
2023-01-29T23:29:15.931Z,35.78
2023-01-29T23:31:42.660Z,35.78
2023-01-29T23:34:09.325Z,36.05
2023-01-29T23:36:35.878Z,35.98
2023-01-29T23:39:02.549Z,36.01
2023-01-29T23:41:29.075Z,35.92
2023-01-29T23:43:55.679Z,36.12
2023-01-29T23:46:22.243Z,36.25
2023-01-29T23:48:48.910Z,36.39
2023-01-29T23:51:15.482Z,36.38
2023-01-29T23:53:42.261Z,36.44
2023-01-29T23:56:10.743Z,36.39
2023-01-29T23:58:37.755Z,36.46
